Wichita Mid Continent Airport
KICT : rendu visible

Aérodrome :











RETROUVEZ-NOUS SUR...

 
LOGIN :

S'inscrire | Disclaimer

   EN    FR    IT 

 









Légende :    VFR   VFR Marginal   IFR   IFR Intensif   IFR Très Intensif
Visi : 
Plafond : 
>= 8 km
>= 3000ft
5 à 8 km
1000 à 3000 ft
1500m à 5 km
500 à 1000 ft
800 à 1500m
200 à 500 ft
< 800m
< 200 ft
Symboles :   Orages  Brouillard  Fortes neiges  Fortes précipitations  Vent > 20 kt







- Altitude de l'aérodrome : 1333 ft
- Code IATA : ICT


KICT - Wichita Mid Continent

DERNIER METAR :
  • 222353Z 12005KT 10SM SCT025 SCT150 SCT180 BKN220 27/21 A2991 RMK AO2 SLP115 60000 T02670211 10272 20250 56015

METARs EXPIRÉS :
  • 222253Z 15007KT 10SM FEW030 FEW120 BKN150 BKN180 BKN220 27/20 A2992 RMK AO2 SLP118 T02670200

TAF KICT
Valide du 23 à 00h jusqu'au 24 à 00h UTC


222330Z 2300/2324 12007KT P6SM FEW040 SCT150
FM231100 09007KT P6SM VCSH BKN025
FM231200 09007KT P6SM BKN015
FM231400 11006KT P6SM BKN025
FM231700 10007KT P6SM BKN035
Pas de NOTAMs connus pour ce terrain.



MET'MAP, la Météo Aéronautique d'un coup d'oeil ! - Copyright ORBIFLY Décembre 2007 - Disclaimer

ORBIFLY MET'MAP TEAM :

Programmation & Développement : Alexandra Zaïnal
Conception & Développement : Baudouin d'Aumeries
Co-Programmation & Développement : Marc-Olivier Méhu
Soutien technique & logistique : Manuel Goepfert

Contact : metmap@orbifly.com




SOURCES & CREDITS :

   NOAA       Earth
Advisory